OAL1CG EPLL-LIMJ
Flight info
| Callsign | OAL1CG |
|---|---|
| Flight time | 1h 42m |
| Altitude | 34000 |
| Route | BAXIS DCT ENORU DCT LUPEV DCT TRAUN DCT GIRIS/N0452F330 DCT MONEB |
| Aircraft | A321/M-SDE3FGHIRWY/LB1 |
Departure
| Time | 2026-05-08 08:37 |
|---|---|
| Airport | Łódź Władysław Reymont Airport (EPLL) |
Arrival
| Time | 2026-05-08 10:20 |
|---|---|
| Airport | Genoa Cristoforo Colombo Airport (LIMJ) |
| Time | Latitude | Longitude | Altitude | Speed | Heading |
|---|---|---|---|---|---|
| 2026-05-08 08:28 | 51.72515 | 19.40101 | 615 ft | 0 kts | 354° |
| 2026-05-08 08:30 | 51.72521 | 19.40100 | 624 ft | 1 kts | 354° |
| 2026-05-08 08:30 | 51.72542 | 19.40100 | 615 ft | 2 kts | 11° |
| 2026-05-08 08:31 | 51.72550 | 19.40111 | 615 ft | 1 kts | 44° |
| 2026-05-08 08:31 | 51.72555 | 19.40124 | 629 ft | 0 kts | 60° |
| 2026-05-08 08:33 | 51.72556 | 19.40126 | 629 ft | 1 kts | 60° |
| 2026-05-08 08:33 | 51.72562 | 19.40149 | 621 ft | 4 kts | 67° |
| 2026-05-08 08:34 | 51.72574 | 19.40199 | 621 ft | 6 kts | 69° |
| 2026-05-08 08:34 | 51.72585 | 19.40279 | 615 ft | 9 kts | 84° |
| 2026-05-08 08:34 | 51.72581 | 19.40388 | 615 ft | 11 kts | 113° |
| 2026-05-08 08:34 | 51.72545 | 19.40466 | 628 ft | 6 kts | 129° |
| 2026-05-08 08:35 | 51.72527 | 19.40498 | 620 ft | 4 kts | 134° |
| 2026-05-08 08:35 | 51.72481 | 19.40543 | 618 ft | 9 kts | 158° |
| 2026-05-08 08:35 | 51.72438 | 19.40571 | 621 ft | 5 kts | 159° |
| 2026-05-08 08:35 | 51.72393 | 19.40596 | 620 ft | 9 kts | 161° |
| 2026-05-08 08:36 | 51.72357 | 19.40591 | 624 ft | 2 kts | 255° |
| 2026-05-08 08:36 | 51.72356 | 19.40587 | 623 ft | 0 kts | 256° |
| 2026-05-08 08:36 | 51.72350 | 19.40556 | 616 ft | 12 kts | 251° |
| 2026-05-08 08:36 | 51.72227 | 19.39991 | 604 ft | 95 kts | 250° |
| 2026-05-08 08:37 | 51.71934 | 19.38613 | 594 ft | 161 kts | 251° |
| 2026-05-08 08:37 | 51.71533 | 19.36847 | 1352 ft | 158 kts | 251° |
| 2026-05-08 08:37 | 51.71164 | 19.35181 | 2360 ft | 159 kts | 252° |
| 2026-05-08 08:37 | 51.70794 | 19.33485 | 2981 ft | 164 kts | 251° |
| 2026-05-08 08:38 | 51.70392 | 19.31643 | 3217 ft | 186 kts | 251° |
| 2026-05-08 08:38 | 51.69943 | 19.29571 | 3460 ft | 205 kts | 252° |
| 2026-05-08 08:38 | 51.69818 | 19.27199 | 3605 ft | 226 kts | 282° |
| 2026-05-08 08:38 | 51.70497 | 19.24777 | 3814 ft | 251 kts | 307° |
| 2026-05-08 08:39 | 51.71668 | 19.22629 | 4460 ft | 258 kts | 310° |
| 2026-05-08 08:39 | 51.72841 | 19.20406 | 5233 ft | 261 kts | 308° |
| 2026-05-08 08:39 | 51.73999 | 19.18124 | 5979 ft | 264 kts | 307° |
| 2026-05-08 08:39 | 51.75158 | 19.15807 | 6705 ft | 266 kts | 307° |
| 2026-05-08 08:40 | 51.76327 | 19.13465 | 7376 ft | 269 kts | 307° |
| 2026-05-08 08:40 | 51.77510 | 19.11100 | 8037 ft | 272 kts | 307° |
| 2026-05-08 08:40 | 51.78532 | 19.08522 | 8694 ft | 274 kts | 293° |
| 2026-05-08 08:40 | 51.79107 | 19.05625 | 9331 ft | 276 kts | 278° |
| 2026-05-08 08:41 | 51.79384 | 19.02541 | 9992 ft | 279 kts | 277° |
| 2026-05-08 08:41 | 51.79664 | 18.99400 | 10430 ft | 290 kts | 277° |
| 2026-05-08 08:41 | 51.79966 | 18.96053 | 10551 ft | 311 kts | 277° |
| 2026-05-08 08:41 | 51.80206 | 18.92423 | 10695 ft | 331 kts | 270° |
| 2026-05-08 08:42 | 51.80005 | 18.88678 | 10823 ft | 348 kts | 258° |
| 2026-05-08 08:42 | 51.79256 | 18.84908 | 11245 ft | 356 kts | 246° |
| 2026-05-08 08:42 | 51.78008 | 18.81439 | 11813 ft | 360 kts | 233° |
| 2026-05-08 08:42 | 51.76368 | 18.78365 | 12390 ft | 364 kts | 228° |
| 2026-05-08 08:43 | 51.74627 | 18.75276 | 12581 ft | 379 kts | 228° |
| 2026-05-08 08:43 | 51.72834 | 18.72100 | 13010 ft | 385 kts | 228° |
| 2026-05-08 08:43 | 51.71021 | 18.68892 | 13525 ft | 388 kts | 228° |
| 2026-05-08 08:43 | 51.69198 | 18.65662 | 14046 ft | 391 kts | 228° |
| 2026-05-08 08:44 | 51.67792 | 18.63169 | 14406 ft | 393 kts | 229° |
| 2026-05-08 08:44 | 51.65950 | 18.59902 | 14871 ft | 395 kts | 229° |
| 2026-05-08 08:44 | 51.64090 | 18.56610 | 15343 ft | 398 kts | 229° |
| 2026-05-08 08:44 | 51.62222 | 18.53315 | 15816 ft | 400 kts | 229° |
| 2026-05-08 08:45 | 51.60340 | 18.49994 | 16286 ft | 402 kts | 229° |
| 2026-05-08 08:45 | 51.58759 | 18.47210 | 16667 ft | 404 kts | 229° |
| 2026-05-08 08:45 | 51.57148 | 18.44387 | 17058 ft | 406 kts | 229° |
| 2026-05-08 08:45 | 51.55231 | 18.41033 | 17520 ft | 409 kts | 229° |
| 2026-05-08 08:46 | 51.53304 | 18.37660 | 17980 ft | 411 kts | 229° |
| 2026-05-08 08:46 | 51.51364 | 18.34268 | 18428 ft | 413 kts | 229° |
| 2026-05-08 08:46 | 51.49416 | 18.30861 | 18821 ft | 416 kts | 229° |
| 2026-05-08 08:46 | 51.48078 | 18.28517 | 19096 ft | 417 kts | 229° |
| 2026-05-08 08:47 | 51.46106 | 18.25074 | 19486 ft | 419 kts | 229° |
| 2026-05-08 08:47 | 51.44126 | 18.21620 | 19883 ft | 422 kts | 229° |
| 2026-05-08 08:47 | 51.42130 | 18.18152 | 20267 ft | 424 kts | 229° |
| 2026-05-08 08:47 | 51.40124 | 18.14672 | 20644 ft | 426 kts | 229° |
| 2026-05-08 08:48 | 51.38112 | 18.11187 | 21019 ft | 428 kts | 229° |
| 2026-05-08 08:48 | 51.36088 | 18.07676 | 21393 ft | 430 kts | 229° |
| 2026-05-08 08:48 | 51.34051 | 18.04153 | 21771 ft | 432 kts | 229° |
| 2026-05-08 08:48 | 51.32001 | 18.00622 | 22145 ft | 434 kts | 229° |
| 2026-05-08 08:49 | 51.29937 | 17.97075 | 22523 ft | 436 kts | 229° |
| 2026-05-08 08:49 | 51.27867 | 17.93515 | 22888 ft | 438 kts | 229° |
| 2026-05-08 08:49 | 51.25790 | 17.89939 | 23249 ft | 440 kts | 229° |
| 2026-05-08 08:49 | 51.23701 | 17.86345 | 23602 ft | 442 kts | 229° |
| 2026-05-08 08:50 | 51.21605 | 17.82746 | 23908 ft | 444 kts | 229° |
| 2026-05-08 08:50 | 51.19492 | 17.79128 | 24203 ft | 446 kts | 229° |
| 2026-05-08 08:50 | 51.17373 | 17.75508 | 24499 ft | 448 kts | 229° |
| 2026-05-08 08:50 | 51.15243 | 17.71876 | 24795 ft | 449 kts | 229° |
| 2026-05-08 08:51 | 51.13104 | 17.68235 | 25088 ft | 451 kts | 229° |
| 2026-05-08 08:51 | 51.10955 | 17.64583 | 25411 ft | 452 kts | 229° |
| 2026-05-08 08:51 | 51.08813 | 17.60946 | 25824 ft | 450 kts | 230° |
| 2026-05-08 08:51 | 51.06680 | 17.57318 | 26226 ft | 449 kts | 230° |
| 2026-05-08 08:52 | 51.04546 | 17.53698 | 26636 ft | 448 kts | 230° |
| 2026-05-08 08:52 | 51.02420 | 17.50100 | 27036 ft | 447 kts | 229° |
| 2026-05-08 08:52 | 51.00292 | 17.46508 | 27457 ft | 446 kts | 229° |
| 2026-05-08 08:52 | 50.98171 | 17.42929 | 27851 ft | 444 kts | 229° |
| 2026-05-08 08:53 | 50.96057 | 17.39364 | 28241 ft | 443 kts | 229° |
| 2026-05-08 08:53 | 50.93943 | 17.35805 | 28635 ft | 442 kts | 229° |
| 2026-05-08 08:53 | 50.91835 | 17.32265 | 29024 ft | 441 kts | 229° |
| 2026-05-08 08:53 | 50.89726 | 17.28734 | 29409 ft | 440 kts | 229° |
| 2026-05-08 08:54 | 50.87622 | 17.25214 | 29797 ft | 439 kts | 229° |
| 2026-05-08 08:54 | 50.85525 | 17.21704 | 30177 ft | 438 kts | 229° |
| 2026-05-08 08:54 | 50.83457 | 17.18243 | 30481 ft | 438 kts | 229° |
| 2026-05-08 08:54 | 50.81369 | 17.14752 | 30785 ft | 437 kts | 229° |
| 2026-05-08 08:55 | 50.79276 | 17.11259 | 31083 ft | 436 kts | 229° |
| 2026-05-08 08:55 | 50.77190 | 17.07786 | 31393 ft | 436 kts | 229° |
| 2026-05-08 08:55 | 50.75102 | 17.04319 | 31688 ft | 435 kts | 229° |
| 2026-05-08 08:55 | 50.73020 | 17.00865 | 31983 ft | 434 kts | 229° |
| 2026-05-08 08:56 | 50.70935 | 16.97415 | 32273 ft | 434 kts | 229° |
| 2026-05-08 08:56 | 50.68851 | 16.93969 | 32563 ft | 433 kts | 229° |
| 2026-05-08 08:56 | 50.66771 | 16.90534 | 32856 ft | 433 kts | 229° |
| 2026-05-08 08:56 | 50.64697 | 16.87111 | 33153 ft | 432 kts | 229° |
| 2026-05-08 08:57 | 50.62618 | 16.83683 | 33449 ft | 431 kts | 229° |
| 2026-05-08 08:57 | 50.60548 | 16.80271 | 33732 ft | 431 kts | 229° |
| 2026-05-08 08:57 | 50.58480 | 16.76871 | 34001 ft | 430 kts | 229° |
| 2026-05-08 08:57 | 50.56402 | 16.73465 | 34136 ft | 431 kts | 229° |
| 2026-05-08 08:58 | 50.52241 | 16.66650 | 34152 ft | 432 kts | 229° |
| 2026-05-08 08:58 | 50.48077 | 16.59853 | 34156 ft | 432 kts | 229° |
| 2026-05-08 08:59 | 50.43910 | 16.53070 | 34145 ft | 431 kts | 229° |
| 2026-05-08 08:59 | 50.39751 | 16.46314 | 34137 ft | 430 kts | 229° |
| 2026-05-08 09:00 | 50.35594 | 16.39575 | 34133 ft | 430 kts | 229° |
| 2026-05-08 09:00 | 50.31339 | 16.32978 | 34126 ft | 431 kts | 225° |
| 2026-05-08 09:01 | 50.26869 | 16.26732 | 34125 ft | 431 kts | 224° |
| 2026-05-08 09:01 | 50.22357 | 16.20576 | 34132 ft | 430 kts | 224° |
| 2026-05-08 09:02 | 50.17920 | 16.14411 | 34131 ft | 429 kts | 225° |
| 2026-05-08 09:02 | 50.13454 | 16.08150 | 34134 ft | 428 kts | 225° |
| 2026-05-08 09:03 | 50.09022 | 16.01957 | 34133 ft | 428 kts | 225° |
| 2026-05-08 09:03 | 50.04588 | 15.95780 | 34136 ft | 427 kts | 225° |
| 2026-05-08 09:04 | 50.00160 | 15.89629 | 34140 ft | 427 kts | 225° |
| 2026-05-08 09:04 | 49.95762 | 15.83537 | 34141 ft | 426 kts | 225° |
| 2026-05-08 09:05 | 49.91331 | 15.77419 | 34136 ft | 426 kts | 225° |
| 2026-05-08 09:05 | 49.86908 | 15.71326 | 34129 ft | 426 kts | 225° |
| 2026-05-08 09:06 | 49.82480 | 15.65243 | 34129 ft | 425 kts | 225° |
| 2026-05-08 09:06 | 49.78050 | 15.59179 | 34125 ft | 425 kts | 224° |
| 2026-05-08 09:07 | 49.73620 | 15.53125 | 34132 ft | 425 kts | 225° |
| 2026-05-08 09:07 | 49.69188 | 15.47088 | 34133 ft | 425 kts | 224° |
| 2026-05-08 09:08 | 49.64752 | 15.41069 | 34134 ft | 424 kts | 224° |
| 2026-05-08 09:08 | 49.60321 | 15.35061 | 34132 ft | 424 kts | 225° |
| 2026-05-08 09:09 | 49.55890 | 15.29065 | 34128 ft | 423 kts | 225° |
| 2026-05-08 09:09 | 49.51461 | 15.23081 | 34123 ft | 423 kts | 225° |
| 2026-05-08 09:10 | 49.47036 | 15.17113 | 34125 ft | 423 kts | 225° |
| 2026-05-08 09:10 | 49.42603 | 15.11166 | 34122 ft | 423 kts | 225° |
| 2026-05-08 09:11 | 49.38168 | 15.05240 | 34121 ft | 423 kts | 224° |
| 2026-05-08 09:11 | 49.33734 | 14.99327 | 34127 ft | 422 kts | 225° |
| 2026-05-08 09:12 | 49.29305 | 14.93414 | 34131 ft | 422 kts | 225° |
| 2026-05-08 09:12 | 49.24882 | 14.87517 | 34127 ft | 421 kts | 224° |
| 2026-05-08 09:13 | 49.20454 | 14.81650 | 34122 ft | 421 kts | 224° |
| 2026-05-08 09:13 | 49.16031 | 14.75805 | 34118 ft | 420 kts | 224° |
| 2026-05-08 09:14 | 49.12356 | 14.70954 | 34116 ft | 420 kts | 224° |
| 2026-05-08 09:14 | 49.07936 | 14.65139 | 34107 ft | 420 kts | 224° |
| 2026-05-08 09:15 | 49.03509 | 14.59338 | 34100 ft | 420 kts | 224° |
| 2026-05-08 09:15 | 48.99452 | 14.53033 | 34100 ft | 415 kts | 235° |
| 2026-05-08 09:16 | 48.95937 | 14.46065 | 34098 ft | 415 kts | 235° |
| 2026-05-08 09:16 | 48.92410 | 14.39115 | 34093 ft | 415 kts | 234° |
| 2026-05-08 09:17 | 48.88875 | 14.32183 | 34092 ft | 415 kts | 234° |
| 2026-05-08 09:17 | 48.85333 | 14.25253 | 34088 ft | 415 kts | 234° |
| 2026-05-08 09:18 | 48.81788 | 14.18332 | 34087 ft | 415 kts | 234° |
| 2026-05-08 09:18 | 48.78237 | 14.11420 | 34081 ft | 416 kts | 234° |
| 2026-05-08 09:19 | 48.74680 | 14.04506 | 34081 ft | 416 kts | 234° |
| 2026-05-08 09:19 | 48.71117 | 13.97615 | 34082 ft | 416 kts | 234° |
| 2026-05-08 09:20 | 48.67551 | 13.90720 | 34083 ft | 416 kts | 234° |
| 2026-05-08 09:20 | 48.64003 | 13.83879 | 34084 ft | 416 kts | 233° |
| 2026-05-08 09:21 | 48.60434 | 13.77007 | 34084 ft | 416 kts | 233° |
| 2026-05-08 09:23 | 48.47899 | 13.53050 | 34097 ft | 415 kts | 233° |
| 2026-05-08 09:23 | 48.44317 | 13.46233 | 34100 ft | 415 kts | 233° |
| 2026-05-08 09:24 | 48.40729 | 13.39427 | 34108 ft | 415 kts | 233° |
| 2026-05-08 09:24 | 48.37131 | 13.32643 | 34108 ft | 414 kts | 233° |
| 2026-05-08 09:25 | 48.33538 | 13.25872 | 34106 ft | 414 kts | 233° |
| 2026-05-08 09:25 | 48.29949 | 13.19112 | 34111 ft | 414 kts | 233° |
| 2026-05-08 09:26 | 48.26361 | 13.12362 | 34108 ft | 413 kts | 233° |
| 2026-05-08 09:26 | 48.22771 | 13.05631 | 34110 ft | 413 kts | 233° |
| 2026-05-08 09:27 | 48.19203 | 12.98967 | 34113 ft | 412 kts | 233° |
| 2026-05-08 09:27 | 48.15585 | 12.92236 | 34109 ft | 411 kts | 233° |
| 2026-05-08 09:28 | 48.11994 | 12.85573 | 34115 ft | 411 kts | 233° |
| 2026-05-08 09:28 | 48.08438 | 12.78971 | 34115 ft | 410 kts | 233° |
| 2026-05-08 09:29 | 48.04859 | 12.72355 | 34116 ft | 409 kts | 233° |
| 2026-05-08 09:29 | 48.01279 | 12.65756 | 34119 ft | 408 kts | 233° |
| 2026-05-08 09:30 | 47.97692 | 12.59190 | 34112 ft | 408 kts | 230° |
| 2026-05-08 09:30 | 47.93675 | 12.53211 | 34106 ft | 408 kts | 227° |
| 2026-05-08 09:31 | 47.89626 | 12.47294 | 34108 ft | 407 kts | 227° |
| 2026-05-08 09:31 | 47.85585 | 12.41391 | 34104 ft | 406 kts | 226° |
| 2026-05-08 09:32 | 47.81545 | 12.35518 | 34104 ft | 405 kts | 226° |
| 2026-05-08 09:32 | 47.77515 | 12.29683 | 34106 ft | 404 kts | 226° |
| 2026-05-08 09:33 | 47.73486 | 12.23866 | 34106 ft | 403 kts | 226° |
| 2026-05-08 09:33 | 47.69471 | 12.18074 | 34102 ft | 402 kts | 226° |
| 2026-05-08 09:34 | 47.65458 | 12.12299 | 34099 ft | 401 kts | 226° |
| 2026-05-08 09:34 | 47.61453 | 12.06555 | 34109 ft | 400 kts | 226° |
| 2026-05-08 09:35 | 47.57456 | 12.00830 | 34091 ft | 399 kts | 226° |
| 2026-05-08 09:35 | 47.53472 | 11.95123 | 34089 ft | 398 kts | 226° |
| 2026-05-08 09:36 | 47.49485 | 11.89434 | 34098 ft | 398 kts | 226° |
| 2026-05-08 09:36 | 47.45501 | 11.83763 | 34079 ft | 397 kts | 226° |
| 2026-05-08 09:37 | 47.41527 | 11.78109 | 34077 ft | 397 kts | 225° |
| 2026-05-08 09:37 | 47.37571 | 11.72502 | 34083 ft | 396 kts | 225° |
| 2026-05-08 09:38 | 47.33596 | 11.66897 | 34083 ft | 395 kts | 225° |
| 2026-05-08 09:38 | 47.29629 | 11.61304 | 34076 ft | 394 kts | 225° |
| 2026-05-08 09:39 | 47.25662 | 11.55724 | 34058 ft | 394 kts | 225° |
| 2026-05-08 09:39 | 47.21697 | 11.50158 | 34054 ft | 393 kts | 225° |
| 2026-05-08 09:40 | 47.17740 | 11.44600 | 34059 ft | 394 kts | 225° |
| 2026-05-08 09:40 | 47.13776 | 11.39049 | 34049 ft | 393 kts | 225° |
| 2026-05-08 09:41 | 47.09805 | 11.33519 | 34061 ft | 393 kts | 225° |
| 2026-05-08 09:41 | 47.05852 | 11.28008 | 34056 ft | 392 kts | 225° |
| 2026-05-08 09:42 | 47.01889 | 11.22489 | 34078 ft | 393 kts | 225° |
| 2026-05-08 09:42 | 46.97926 | 11.16991 | 34082 ft | 392 kts | 225° |
| 2026-05-08 09:43 | 46.93956 | 11.11505 | 34092 ft | 392 kts | 225° |
| 2026-05-08 09:43 | 46.89985 | 11.06029 | 34094 ft | 392 kts | 224° |
| 2026-05-08 09:44 | 46.86013 | 11.00559 | 34094 ft | 392 kts | 224° |
| 2026-05-08 09:44 | 46.82075 | 10.95137 | 34091 ft | 391 kts | 224° |
| 2026-05-08 09:45 | 46.78096 | 10.89709 | 34092 ft | 392 kts | 221° |
| 2026-05-08 09:45 | 46.75878 | 10.87377 | 34231 ft | 395 kts | 213° |
| 2026-05-08 09:45 | 46.73456 | 10.85454 | 34444 ft | 398 kts | 211° |
| 2026-05-08 09:45 | 46.71010 | 10.83544 | 34615 ft | 399 kts | 211° |
| 2026-05-08 09:46 | 46.68566 | 10.81613 | 34774 ft | 400 kts | 211° |
| 2026-05-08 09:46 | 46.66124 | 10.79671 | 34931 ft | 401 kts | 211° |
| 2026-05-08 09:46 | 46.63672 | 10.77715 | 35071 ft | 403 kts | 211° |
| 2026-05-08 09:47 | 46.58747 | 10.73797 | 35104 ft | 404 kts | 211° |
| 2026-05-08 09:47 | 46.53811 | 10.69896 | 35107 ft | 404 kts | 211° |
| 2026-05-08 09:48 | 46.48864 | 10.66008 | 35109 ft | 404 kts | 211° |
| 2026-05-08 09:48 | 46.43914 | 10.62118 | 35108 ft | 405 kts | 211° |
| 2026-05-08 09:49 | 46.38954 | 10.58238 | 35109 ft | 405 kts | 211° |
| 2026-05-08 09:49 | 46.34001 | 10.54371 | 35105 ft | 405 kts | 211° |
| 2026-05-08 09:50 | 46.29043 | 10.50497 | 35100 ft | 405 kts | 211° |
| 2026-05-08 09:50 | 46.24088 | 10.46630 | 35096 ft | 405 kts | 211° |
| 2026-05-08 09:51 | 46.19135 | 10.42782 | 35089 ft | 405 kts | 210° |
| 2026-05-08 09:51 | 46.14170 | 10.38943 | 35086 ft | 405 kts | 210° |
| 2026-05-08 09:52 | 46.09210 | 10.35102 | 35084 ft | 405 kts | 210° |
| 2026-05-08 09:52 | 46.04252 | 10.31267 | 35066 ft | 404 kts | 210° |
| 2026-05-08 09:53 | 45.99318 | 10.27466 | 35067 ft | 405 kts | 210° |
| 2026-05-08 09:53 | 45.94352 | 10.23641 | 35063 ft | 405 kts | 210° |
| 2026-05-08 09:54 | 45.89381 | 10.19823 | 35065 ft | 405 kts | 210° |
| 2026-05-08 09:54 | 45.84406 | 10.16016 | 35063 ft | 405 kts | 210° |
| 2026-05-08 09:55 | 45.79442 | 10.12212 | 35071 ft | 405 kts | 210° |
| 2026-05-08 09:55 | 45.74466 | 10.08417 | 35073 ft | 405 kts | 210° |
| 2026-05-08 09:56 | 45.69499 | 10.04637 | 35079 ft | 404 kts | 210° |
| 2026-05-08 09:56 | 45.64534 | 10.00862 | 35081 ft | 404 kts | 210° |
| 2026-05-08 09:57 | 45.57079 | 9.95209 | 35085 ft | 404 kts | 209° |
| 2026-05-08 09:57 | 45.52108 | 9.91453 | 35083 ft | 404 kts | 209° |
| 2026-05-08 09:58 | 45.47138 | 9.87701 | 35066 ft | 404 kts | 209° |
| 2026-05-08 09:58 | 45.42199 | 9.83986 | 35064 ft | 404 kts | 209° |
| 2026-05-08 09:59 | 45.37190 | 9.80224 | 35046 ft | 404 kts | 209° |
| 2026-05-08 09:59 | 45.32236 | 9.76509 | 34428 ft | 410 kts | 209° |
| 2026-05-08 10:00 | 45.29707 | 9.74608 | 33605 ft | 412 kts | 208° |
| 2026-05-08 10:00 | 45.27171 | 9.72704 | 32776 ft | 412 kts | 208° |
| 2026-05-08 10:00 | 45.24632 | 9.70803 | 31998 ft | 414 kts | 208° |
| 2026-05-08 10:00 | 45.22085 | 9.68896 | 31245 ft | 415 kts | 208° |
| 2026-05-08 10:01 | 45.19522 | 9.66981 | 30430 ft | 418 kts | 208° |
| 2026-05-08 10:01 | 45.17775 | 9.65678 | 29771 ft | 422 kts | 208° |
| 2026-05-08 10:01 | 45.15199 | 9.63759 | 28848 ft | 425 kts | 208° |
| 2026-05-08 10:01 | 45.12576 | 9.61808 | 27988 ft | 427 kts | 208° |
| 2026-05-08 10:02 | 45.09932 | 9.59847 | 26983 ft | 432 kts | 208° |
| 2026-05-08 10:02 | 45.07245 | 9.57860 | 25939 ft | 438 kts | 208° |
| 2026-05-08 10:02 | 45.04530 | 9.55849 | 24991 ft | 443 kts | 208° |
| 2026-05-08 10:02 | 45.01788 | 9.53819 | 24025 ft | 448 kts | 208° |
| 2026-05-08 10:03 | 44.99015 | 9.51769 | 23113 ft | 449 kts | 208° |
| 2026-05-08 10:03 | 44.96254 | 9.49730 | 22399 ft | 445 kts | 208° |
| 2026-05-08 10:03 | 44.93531 | 9.47718 | 21696 ft | 440 kts | 208° |
| 2026-05-08 10:03 | 44.90828 | 9.45720 | 21003 ft | 436 kts | 208° |
| 2026-05-08 10:04 | 44.88155 | 9.43747 | 20339 ft | 432 kts | 208° |
| 2026-05-08 10:04 | 44.85503 | 9.41793 | 19668 ft | 428 kts | 208° |
| 2026-05-08 10:04 | 44.82867 | 9.39857 | 19013 ft | 425 kts | 208° |
| 2026-05-08 10:04 | 44.80257 | 9.37943 | 18387 ft | 422 kts | 208° |
| 2026-05-08 10:05 | 44.77661 | 9.36041 | 17687 ft | 418 kts | 208° |
| 2026-05-08 10:05 | 44.75115 | 9.34177 | 17086 ft | 412 kts | 208° |
| 2026-05-08 10:05 | 44.72606 | 9.32342 | 16499 ft | 406 kts | 208° |
| 2026-05-08 10:05 | 44.70080 | 9.30495 | 15915 ft | 402 kts | 208° |
| 2026-05-08 10:06 | 44.67616 | 9.28696 | 15363 ft | 397 kts | 208° |
| 2026-05-08 10:06 | 44.65215 | 9.26942 | 14830 ft | 393 kts | 207° |
| 2026-05-08 10:06 | 44.62804 | 9.25178 | 14302 ft | 388 kts | 207° |
| 2026-05-08 10:06 | 44.60449 | 9.23366 | 13770 ft | 385 kts | 209° |
| 2026-05-08 10:07 | 44.58151 | 9.21476 | 13241 ft | 381 kts | 210° |
| 2026-05-08 10:07 | 44.55897 | 9.19553 | 12759 ft | 377 kts | 211° |
| 2026-05-08 10:07 | 44.53697 | 9.17658 | 12608 ft | 364 kts | 211° |
| 2026-05-08 10:07 | 44.51580 | 9.15846 | 12477 ft | 350 kts | 211° |
| 2026-05-08 10:08 | 44.49532 | 9.14113 | 12343 ft | 338 kts | 210° |
| 2026-05-08 10:08 | 44.47550 | 9.12455 | 12223 ft | 326 kts | 210° |
| 2026-05-08 10:08 | 44.45637 | 9.10864 | 12073 ft | 315 kts | 210° |
| 2026-05-08 10:08 | 44.43770 | 9.09359 | 11958 ft | 304 kts | 206° |
| 2026-05-08 10:09 | 44.41926 | 9.07997 | 11534 ft | 297 kts | 211° |
| 2026-05-08 10:09 | 44.40207 | 9.06407 | 10914 ft | 296 kts | 215° |
| 2026-05-08 10:09 | 44.38568 | 9.04709 | 10839 ft | 293 kts | 217° |
| 2026-05-08 10:09 | 44.36943 | 9.02983 | 10725 ft | 293 kts | 217° |
| 2026-05-08 10:10 | 44.35395 | 9.01130 | 10497 ft | 293 kts | 231° |
| 2026-05-08 10:10 | 44.34396 | 8.98681 | 10333 ft | 292 kts | 249° |
| 2026-05-08 10:10 | 44.33684 | 8.96016 | 10204 ft | 293 kts | 250° |
| 2026-05-08 10:10 | 44.32979 | 8.93353 | 10082 ft | 292 kts | 250° |
| 2026-05-08 10:11 | 44.32275 | 8.90690 | 10025 ft | 292 kts | 250° |
| 2026-05-08 10:11 | 44.31572 | 8.88033 | 10026 ft | 292 kts | 250° |
| 2026-05-08 10:11 | 44.30865 | 8.85370 | 9914 ft | 292 kts | 249° |
| 2026-05-08 10:11 | 44.30170 | 8.82757 | 9131 ft | 291 kts | 250° |
| 2026-05-08 10:12 | 44.29465 | 8.80117 | 8342 ft | 289 kts | 249° |
| 2026-05-08 10:12 | 44.28764 | 8.77496 | 7564 ft | 288 kts | 249° |
| 2026-05-08 10:12 | 44.28063 | 8.74873 | 6979 ft | 290 kts | 249° |
| 2026-05-08 10:12 | 44.27374 | 8.72266 | 6758 ft | 282 kts | 252° |
| 2026-05-08 10:13 | 44.27089 | 8.69650 | 6614 ft | 263 kts | 272° |
| 2026-05-08 10:13 | 44.27389 | 8.67198 | 6202 ft | 251 kts | 286° |
| 2026-05-08 10:13 | 44.27839 | 8.64927 | 5841 ft | 237 kts | 286° |
| 2026-05-08 10:13 | 44.28263 | 8.62744 | 5480 ft | 230 kts | 287° |
| 2026-05-08 10:14 | 44.28978 | 8.60813 | 5139 ft | 223 kts | 317° |
| 2026-05-08 10:14 | 44.30319 | 8.59833 | 4821 ft | 220 kts | 352° |
| 2026-05-08 10:14 | 44.31810 | 8.60065 | 4487 ft | 214 kts | 17° |
| 2026-05-08 10:14 | 44.33211 | 8.60631 | 4139 ft | 206 kts | 15° |
| 2026-05-08 10:15 | 44.34527 | 8.61308 | 3807 ft | 199 kts | 29° |
| 2026-05-08 10:15 | 44.35536 | 8.62619 | 3345 ft | 200 kts | 51° |
| 2026-05-08 10:15 | 44.36069 | 8.63708 | 3103 ft | 198 kts | 56° |
| 2026-05-08 10:15 | 44.36767 | 8.65332 | 2792 ft | 192 kts | 58° |
| 2026-05-08 10:16 | 44.37421 | 8.66912 | 2508 ft | 182 kts | 58° |
| 2026-05-08 10:16 | 44.38026 | 8.68387 | 2259 ft | 169 kts | 58° |
| 2026-05-08 10:16 | 44.38600 | 8.69797 | 2009 ft | 165 kts | 57° |
| 2026-05-08 10:16 | 44.39158 | 8.71152 | 1790 ft | 155 kts | 57° |
| 2026-05-08 10:17 | 44.39683 | 8.72427 | 1554 ft | 149 kts | 58° |
| 2026-05-08 10:17 | 44.40189 | 8.73660 | 1341 ft | 145 kts | 57° |
| 2026-05-08 10:17 | 44.40688 | 8.74872 | 1133 ft | 143 kts | 58° |
| 2026-05-08 10:17 | 44.41112 | 8.76126 | 915 ft | 144 kts | 69° |
| 2026-05-08 10:18 | 44.41352 | 8.77474 | 732 ft | 143 kts | 75° |
| 2026-05-08 10:18 | 44.41579 | 8.78826 | 533 ft | 143 kts | 73° |
| 2026-05-08 10:18 | 44.41742 | 8.80207 | 397 ft | 146 kts | 82° |
| 2026-05-08 10:18 | 44.41666 | 8.81631 | 210 ft | 149 kts | 96° |
| 2026-05-08 10:19 | 44.41419 | 8.83019 | 52 ft | 146 kts | 102° |
| 2026-05-08 10:19 | 44.41188 | 8.84275 | 22 ft | 115 kts | 104° |
| 2026-05-08 10:19 | 44.41015 | 8.85113 | 17 ft | 65 kts | 106° |
| 2026-05-08 10:20 | 44.40931 | 8.85514 | 21 ft | 1 kts | 139° |
| 2026-05-08 10:20 | 44.40928 | 8.85496 | 20 ft | 4 kts | 284° |
| 2026-05-08 10:20 | 44.40956 | 8.85399 | 19 ft | 16 kts | 291° |
| 2026-05-08 10:20 | 44.40991 | 8.85239 | 17 ft | 18 kts | 287° |
| 2026-05-08 10:21 | 44.41062 | 8.85204 | 20 ft | 10 kts | 30° |
| 2026-05-08 10:21 | 44.41115 | 8.85238 | 20 ft | 7 kts | 17° |
| 2026-05-08 10:21 | 44.41160 | 8.85255 | 20 ft | 6 kts | 14° |
| 2026-05-08 10:21 | 44.41199 | 8.85269 | 20 ft | 5 kts | 14° |
| 2026-05-08 10:22 | 44.41241 | 8.85282 | 20 ft | 7 kts | 6° |
| 2026-05-08 10:22 | 44.41287 | 8.85250 | 20 ft | 8 kts | 319° |
| 2026-05-08 10:22 | 44.41312 | 8.85176 | 20 ft | 9 kts | 286° |
| 2026-05-08 10:22 | 44.41327 | 8.85096 | 20 ft | 8 kts | 284° |
| 2026-05-08 10:23 | 44.41355 | 8.85084 | 20 ft | 4 kts | 14° |
| 2026-05-08 10:23 | 44.41378 | 8.85092 | 20 ft | 3 kts | 14° |
| 2026-05-08 10:23 | 44.41392 | 8.85097 | 20 ft | 0 kts | 15° |